Brilliance Of The Seas — C6SJ5 — position and weather

sailwx.info

Track history (hours):
 
Tides and Currents Weather Stations Pressure Air Temp Water Temp Dewpoint Dewpoint Depression Visibility Wind Speed Wind Dir Waves Ship Positions

Brilliance Of The Seas

Operator: Royal Caribbean Cruises Ltd

Last reported at 2015-May-04 10:33 UTC. Time now 2015-May-04 11:02 UTC.
Position N 27°57' W 082°27'.

Type: Ship. MMSI: 311361000.

Date/timePositionNaut miles runAvg speedWind from/ knotsBaromVisibWave heightAir tempDewpointWater temp
2015-May-04 10:33N 27°57' W 082°27'8 7.7
2015-May-04 09:33N 27°49' W 082°27'1312.8
2015-May-04 08:32N 27°39' W 082°37'48914.3
2015-May-02 22:16N 20°32' W 086°59'3 4.6
2015-May-02 21:31N 20°29' W 086°59'0 0.0
2015-May-02 20:31N 20°29' W 086°59'0 0.0
2015-May-02 19:04N 20°29' W 086°59'0 0.0
2015-May-02 18:31N 20°29' W 086°59'0 0.0
2015-May-02 17:25N 20°29' W 086°59'0 0.0
2015-May-02 16:28N 20°29' W 086°59'0 0.0
2015-May-02 15:28N 20°29' W 086°59'0 0.0
2015-May-02 14:28N 20°29' W 086°59'0 0.0
2015-May-02 13:22N 20°29' W 086°59'0 0.0
2015-May-02 12:28N 20°29' W 086°59'1 0.6
2015-May-02 11:34N 20°29' W 086°59'49913.1
2015-Apr-30 21:31N 27°45' W 082°31'1010.9
2015-Apr-30 20:33N 27°55' W 082°27'2 1.9
2015-Apr-30 19:31N 27°57' W 082°27'0 0.0
2015-Apr-30 18:31N 27°57' W 082°27'0 0.0
2015-Apr-30 17:31N 27°57' W 082°27'0 0.0
2015-Apr-30 16:31N 27°57' W 082°27'0 0.0
2015-Apr-30 15:31N 27°57' W 082°27'0 0.0
2015-Apr-30 14:31N 27°57' W 082°27'0 0.0
2015-Apr-30 13:31N 27°57' W 082°27'0 0.0
2015-Apr-30 12:31N 27°57' W 082°27'0 0.0
2015-Apr-30 11:31N 27°57' W 082°27'0 0.5
2015-Apr-30 10:33N 27°56' W 082°27'8 7.9
2015-Apr-30 09:33N 27°48' W 082°28'50214.3
2015-Apr-28 22:24N 20°31' W 086°59'2 2.7
2015-Apr-28 21:29N 20°29' W 086°59'0 0.0
2015-Apr-28 20:29N 20°29' W 086°59'0 0.0
2015-Apr-28 19:29N 20°29' W 086°59'0 0.0
2015-Apr-28 18:29N 20°29' W 086°59'0 0.0
2015-Apr-28 17:29N 20°29' W 086°59'0 0.0
2015-Apr-28 16:29N 20°29' W 086°59'0 0.0
2015-Apr-28 15:29N 20°29' W 086°59'0 0.0
2015-Apr-28 14:32N 20°29' W 086°59'0 0.0
2015-Apr-28 13:32N 20°29' W 086°59'0 0.0
2015-Apr-28 12:32N 20°29' W 086°59'0 0.3
2015-Apr-28 11:33N 20°29' W 086°59'311 6.2
2015-Apr-26 09:22N 24°22' W 083°15'2218.9
2015-Apr-26 08:13N 24°44' W 083°13'1518.8
2015-Apr-26 07:26N 24°58' W 083°13'7819.9
2015-Apr-26 03:31N 26°16' W 083°08'2020.0
2015-Apr-26 02:31N 26°36' W 083°07'1919.7
2015-Apr-26 01:33N 26°55' W 083°06'5914.3
2015-Apr-25 21:26N 27°45' W 082°31'1011.5
2015-Apr-25 20:33N 27°54' W 082°26'3 2.5
2015-Apr-25 19:32N 27°57' W 082°27'0 0.0
2015-Apr-25 18:32N 27°57' W 082°27'0 0.0
2015-Apr-25 17:32N 27°57' W 082°27'0 0.0
2015-Apr-25 16:32N 27°57' W 082°27'0 0.0
2015-Apr-25 15:32N 27°57' W 082°27'0 0.0
2015-Apr-25 14:32N 27°57' W 082°27'0 0.0
2015-Apr-25 13:32N 27°57' W 082°27'0 0.0
2015-Apr-25 12:32N 27°57' W 082°27'0 0.0
2015-Apr-25 11:32N 27°57' W 082°27'0 0.3
2015-Apr-25 10:33N 27°56' W 082°27'7 7.1
2015-Apr-25 09:33N 27°49' W 082°27'1413.1
2015-Apr-25 08:31N 27°39' W 082°37'  
Track history (hours):
 
Tides and Currents Weather Stations Pressure Air Temp Water Temp Dewpoint Dewpoint Depression Visibility Wind Speed Wind Dir Waves Ship Positions

Brilliance Of The Seas

Operator: Royal Caribbean Cruises Ltd

Last reported at 2015-May-04 10:33 UTC. Time now 2015-May-04 11:02 UTC.
Position N 27°57' W 082°27'.

Type: Ship. MMSI: 311361000.

Date/timePositionNaut miles runAvg speedWind from/ knotsBaromVisibWave heightAir tempDewpointWater temp
2015-May-04 10:33N 27°57' W 082°27'8 7.7
2015-May-04 09:33N 27°49' W 082°27'1312.8
2015-May-04 08:32N 27°39' W 082°37'48914.3
2015-May-02 22:16N 20°32' W 086°59'3 4.6
2015-May-02 21:31N 20°29' W 086°59'0 0.0
2015-May-02 20:31N 20°29' W 086°59'0 0.0
2015-May-02 19:04N 20°29' W 086°59'0 0.0
2015-May-02 18:31N 20°29' W 086°59'0 0.0
2015-May-02 17:25N 20°29' W 086°59'0 0.0
2015-May-02 16:28N 20°29' W 086°59'0 0.0
2015-May-02 15:28N 20°29' W 086°59'0 0.0
2015-May-02 14:28N 20°29' W 086°59'0 0.0
2015-May-02 13:22N 20°29' W 086°59'0 0.0
2015-May-02 12:28N 20°29' W 086°59'1 0.6
2015-May-02 11:34N 20°29' W 086°59'49913.1
2015-Apr-30 21:31N 27°45' W 082°31'1010.9
2015-Apr-30 20:33N 27°55' W 082°27'2 1.9
2015-Apr-30 19:31N 27°57' W 082°27'0 0.0
2015-Apr-30 18:31N 27°57' W 082°27'0 0.0
2015-Apr-30 17:31N 27°57' W 082°27'0 0.0
2015-Apr-30 16:31N 27°57' W 082°27'0 0.0
2015-Apr-30 15:31N 27°57' W 082°27'0 0.0
2015-Apr-30 14:31N 27°57' W 082°27'0 0.0
2015-Apr-30 13:31N 27°57' W 082°27'0 0.0
2015-Apr-30 12:31N 27°57' W 082°27'0 0.0
2015-Apr-30 11:31N 27°57' W 082°27'0 0.5
2015-Apr-30 10:33N 27°56' W 082°27'8 7.9
2015-Apr-30 09:33N 27°48' W 082°28'50214.3
2015-Apr-28 22:24N 20°31' W 086°59'2 2.7
2015-Apr-28 21:29N 20°29' W 086°59'0 0.0
2015-Apr-28 20:29N 20°29' W 086°59'0 0.0
2015-Apr-28 19:29N 20°29' W 086°59'0 0.0
2015-Apr-28 18:29N 20°29' W 086°59'0 0.0
2015-Apr-28 17:29N 20°29' W 086°59'0 0.0
2015-Apr-28 16:29N 20°29' W 086°59'0 0.0
2015-Apr-28 15:29N 20°29' W 086°59'0 0.0
2015-Apr-28 14:32N 20°29' W 086°59'0 0.0
2015-Apr-28 13:32N 20°29' W 086°59'0 0.0
2015-Apr-28 12:32N 20°29' W 086°59'0 0.3
2015-Apr-28 11:33N 20°29' W 086°59'311 6.2
2015-Apr-26 09:22N 24°22' W 083°15'2218.9
2015-Apr-26 08:13N 24°44' W 083°13'1518.8
2015-Apr-26 07:26N 24°58' W 083°13'7819.9
2015-Apr-26 03:31N 26°16' W 083°08'2020.0
2015-Apr-26 02:31N 26°36' W 083°07'1919.7
2015-Apr-26 01:33N 26°55' W 083°06'5914.3
2015-Apr-25 21:26N 27°45' W 082°31'1011.5
2015-Apr-25 20:33N 27°54' W 082°26'3 2.5
2015-Apr-25 19:32N 27°57' W 082°27'0 0.0
2015-Apr-25 18:32N 27°57' W 082°27'0 0.0
2015-Apr-25 17:32N 27°57' W 082°27'0 0.0
2015-Apr-25 16:32N 27°57' W 082°27'0 0.0
2015-Apr-25 15:32N 27°57' W 082°27'0 0.0
2015-Apr-25 14:32N 27°57' W 082°27'0 0.0
2015-Apr-25 13:32N 27°57' W 082°27'0 0.0
2015-Apr-25 12:32N 27°57' W 082°27'0 0.0
2015-Apr-25 11:32N 27°57' W 082°27'0 0.3
2015-Apr-25 10:33N 27°56' W 082°27'7 7.1
2015-Apr-25 09:33N 27°49' W 082°27'1413.1
2015-Apr-25 08:31N 27°39' W 082°37'  

Dump ship's entire track history